createdAt,value
2022-11-14T00:00:58.897Z,57.50
2022-11-14T00:03:25.420Z,57.41
2022-11-14T00:05:51.907Z,57.51
2022-11-14T00:08:25.219Z,58.19
2022-11-14T00:10:52.116Z,57.38
2022-11-14T00:13:20.085Z,57.15
2022-11-14T00:15:50.527Z,58.07
2022-11-14T00:18:17.622Z,57.38
2022-11-14T00:20:47.264Z,57.42
2022-11-14T00:23:13.782Z,57.15
2022-11-14T00:25:40.356Z,57.24
2022-11-14T00:28:07.007Z,57.31
2022-11-14T00:30:33.477Z,57.13
2022-11-14T00:32:59.895Z,57.25
2022-11-14T00:35:26.501Z,57.25
2022-11-14T00:37:53.017Z,57.30
2022-11-14T00:40:19.488Z,57.51
2022-11-14T00:42:46.046Z,57.46
2022-11-14T00:45:12.548Z,57.57
2022-11-14T00:47:39.136Z,57.38
2022-11-14T00:50:06.369Z,57.73
2022-11-14T00:52:32.851Z,57.57
2022-11-14T00:54:59.251Z,57.98
2022-11-14T00:57:25.751Z,58.14
2022-11-14T00:59:55.659Z,57.72
2022-11-14T01:02:22.716Z,57.97
2022-11-14T01:04:49.232Z,57.97
2022-11-14T01:07:15.655Z,58.02
2022-11-14T01:09:42.152Z,58.41
2022-11-14T01:12:08.753Z,58.32
2022-11-14T01:14:35.213Z,58.28
2022-11-14T01:17:01.734Z,58.76
2022-11-14T01:19:28.222Z,58.74
2022-11-14T01:21:54.831Z,58.72
2022-11-14T01:24:21.285Z,58.81
2022-11-14T01:26:47.826Z,58.56
2022-11-14T01:29:14.322Z,58.83
2022-11-14T01:31:42.194Z,58.65
2022-11-14T01:34:08.725Z,58.85
2022-11-14T01:36:35.273Z,59.12
2022-11-14T01:39:01.770Z,59.21
2022-11-14T01:41:28.257Z,58.75
2022-11-14T01:43:54.702Z,59.17
2022-11-14T01:46:42.087Z,60.58
2022-11-14T01:49:20.502Z,60.33
2022-11-14T01:51:51.323Z,59.52
2022-11-14T01:54:26.526Z,60.39
2022-11-14T01:56:57.422Z,59.78
2022-11-14T01:59:31.150Z,59.50
2022-11-14T02:02:04.049Z,59.85
2022-11-14T02:04:38.096Z,60.27
2022-11-14T02:07:06.335Z,58.89
2022-11-14T02:09:37.271Z,59.57
2022-11-14T02:12:07.196Z,59.20
2022-11-14T02:14:35.969Z,59.23
2022-11-14T02:17:28.045Z,59.17
2022-11-14T02:20:14.332Z,60.20
2022-11-14T02:22:42.645Z,58.99
2022-11-14T02:25:11.448Z,59.31
2022-11-14T02:27:39.436Z,59.10
2022-11-14T02:30:12.767Z,59.38
2022-11-14T02:33:08.945Z,58.90
2022-11-14T02:35:26.050Z,59.26
2022-11-14T02:37:52.535Z,59.30
2022-11-14T02:40:19.137Z,59.52
2022-11-14T02:42:45.761Z,59.47
2022-11-14T02:45:12.792Z,59.54
2022-11-14T02:47:39.257Z,59.27
2022-11-14T02:50:06.245Z,59.67
2022-11-14T02:52:32.782Z,59.47
2022-11-14T02:54:59.374Z,59.67
2022-11-14T02:57:25.886Z,59.87
2022-11-14T02:59:52.405Z,59.45
2022-11-14T03:02:18.968Z,59.29
2022-11-14T03:04:45.574Z,59.46
2022-11-14T03:07:12.278Z,59.51
2022-11-14T03:09:38.811Z,59.90
2022-11-14T03:12:05.881Z,59.90
2022-11-14T03:14:32.370Z,59.95
2022-11-14T03:16:58.993Z,59.94
2022-11-14T03:19:25.418Z,59.77
2022-11-14T03:21:51.947Z,60.06
2022-11-14T03:24:18.491Z,60.04
2022-11-14T03:26:45.330Z,60.24
2022-11-14T03:29:11.780Z,59.87
2022-11-14T03:31:38.315Z,59.88
2022-11-14T03:34:04.809Z,59.94
2022-11-14T03:36:31.395Z,60.14
2022-11-14T03:38:57.904Z,59.85
2022-11-14T03:41:24.411Z,59.80
2022-11-14T03:43:50.920Z,59.90
2022-11-14T03:46:17.398Z,59.79
2022-11-14T03:48:43.896Z,59.72
2022-11-14T03:51:10.421Z,59.89
2022-11-14T03:53:36.945Z,59.99
2022-11-14T03:56:03.557Z,59.86
2022-11-14T03:58:30.515Z,59.82
2022-11-14T04:00:57.527Z,60.18
2022-11-14T04:03:24.609Z,60.03
2022-11-14T04:09:33.596Z,59.99
2022-11-14T04:12:00.101Z,60.35
2022-11-14T04:14:26.570Z,60.27
2022-11-14T04:16:53.136Z,60.09
2022-11-14T04:19:19.673Z,60.34
2022-11-14T04:21:46.196Z,60.44
2022-11-14T04:24:12.705Z,60.21
2022-11-14T04:26:39.305Z,60.36
2022-11-14T04:29:05.739Z,60.15
2022-11-14T04:31:32.345Z,60.25
2022-11-14T04:33:58.774Z,60.30
2022-11-14T04:36:25.299Z,60.10
2022-11-14T04:38:51.906Z,60.13
2022-11-14T04:41:18.486Z,60.24
2022-11-14T04:43:50.485Z,59.89
2022-11-14T04:46:17.498Z,59.89
2022-11-14T04:48:44.014Z,60.23
2022-11-14T04:51:10.550Z,60.29
2022-11-14T04:53:37.094Z,60.33
2022-11-14T04:56:03.790Z,60.43
2022-11-14T04:58:30.459Z,60.39
2022-11-14T05:01:00.125Z,60.08
2022-11-14T05:03:26.673Z,59.99
2022-11-14T05:05:53.283Z,60.11
2022-11-14T05:08:19.744Z,60.17
2022-11-14T05:10:46.452Z,60.22
2022-11-14T05:13:13.116Z,60.18
2022-11-14T05:15:39.624Z,60.41
2022-11-14T05:18:06.108Z,60.69
2022-11-14T05:20:32.624Z,60.31
2022-11-14T05:22:59.298Z,60.42
2022-11-14T05:25:25.811Z,60.77
2022-11-14T05:27:52.347Z,60.64
2022-11-14T05:30:19.029Z,60.89
2022-11-14T05:32:45.888Z,60.74
2022-11-14T05:35:12.591Z,60.61
2022-11-14T05:37:39.259Z,60.89
2022-11-14T05:40:06.600Z,61.23
2022-11-14T05:42:33.173Z,61.07
2022-11-14T05:44:59.713Z,61.05
2022-11-14T05:47:26.228Z,60.83
2022-11-14T05:49:52.808Z,61.01
2022-11-14T05:52:19.286Z,60.96
2022-11-14T05:54:45.819Z,60.65
2022-11-14T05:57:12.275Z,60.71
2022-11-14T05:59:38.799Z,60.73
2022-11-14T06:02:07.192Z,60.69
2022-11-14T06:04:33.745Z,60.66
2022-11-14T06:07:00.318Z,60.81
2022-11-14T06:09:26.884Z,61.01
2022-11-14T06:11:53.256Z,60.64
2022-11-14T06:14:19.793Z,61.00
2022-11-14T06:16:46.332Z,61.00
2022-11-14T06:19:12.941Z,60.80
2022-11-14T06:21:39.467Z,60.95
2022-11-14T06:24:06.354Z,61.13
2022-11-14T06:26:32.892Z,61.28
2022-11-14T06:29:00.721Z,61.12
2022-11-14T06:31:27.339Z,61.10
2022-11-14T06:33:53.986Z,60.88
2022-11-14T06:36:20.545Z,61.29
2022-11-14T06:38:47.092Z,61.20
2022-11-14T06:41:18.969Z,61.29
2022-11-14T06:43:49.537Z,61.60
2022-11-14T06:46:18.881Z,61.21
2022-11-14T06:48:46.816Z,61.29
2022-11-14T06:51:15.027Z,61.36
2022-11-14T06:53:42.838Z,61.13
2022-11-14T06:56:11.598Z,61.54
2022-11-14T06:58:43.938Z,61.22
2022-11-14T07:01:15.005Z,61.92
2022-11-14T07:03:42.867Z,61.15
2022-11-14T07:06:20.326Z,62.44
2022-11-14T07:08:47.024Z,61.36
2022-11-14T07:11:26.143Z,61.31
2022-11-14T07:13:53.623Z,61.15
2022-11-14T07:16:21.360Z,61.65
2022-11-14T07:18:47.859Z,61.29
2022-11-14T07:21:14.512Z,61.24
2022-11-14T07:23:42.053Z,61.17
2022-11-14T07:26:10.707Z,61.53
2022-11-14T07:28:41.363Z,61.72
2022-11-14T07:31:13.179Z,61.31
2022-11-14T07:33:40.937Z,61.27
2022-11-14T07:36:08.728Z,61.48
2022-11-14T07:38:37.066Z,61.20
2022-11-14T07:41:11.834Z,61.70
2022-11-14T07:43:38.516Z,61.27
2022-11-14T07:46:16.628Z,62.48
2022-11-14T07:48:43.809Z,61.27
2022-11-14T07:51:15.476Z,62.07
2022-11-14T07:53:42.005Z,61.19
2022-11-14T07:56:09.940Z,61.61
2022-11-14T07:58:37.824Z,61.81
2022-11-14T08:01:06.030Z,61.87
2022-11-14T08:03:33.448Z,61.65
2022-11-14T08:06:04.815Z,61.82
2022-11-14T08:08:32.024Z,61.65
2022-11-14T08:10:59.961Z,61.93
2022-11-14T08:13:33.146Z,61.89
2022-11-14T08:16:05.679Z,62.33
2022-11-14T08:18:35.885Z,61.27
2022-11-14T08:21:06.035Z,62.10
2022-11-14T08:23:32.518Z,61.66
2022-11-14T08:25:59.963Z,61.64
2022-11-14T08:28:26.541Z,62.03
2022-11-14T08:30:53.157Z,61.88
2022-11-14T08:33:19.646Z,62.05
2022-11-14T08:35:46.182Z,62.03
2022-11-14T08:38:12.726Z,61.80
2022-11-14T08:40:40.002Z,61.70
2022-11-14T08:43:06.455Z,61.98
2022-11-14T08:45:32.993Z,61.86
2022-11-14T08:47:59.591Z,62.17
2022-11-14T08:50:26.094Z,62.12
2022-11-14T08:52:52.643Z,62.18
2022-11-14T08:55:20.488Z,62.05
2022-11-14T08:57:49.575Z,61.96
2022-11-14T09:00:17.237Z,62.08
2022-11-14T09:02:43.948Z,62.18
2022-11-14T09:05:11.157Z,62.22
2022-11-14T09:07:37.660Z,61.94
2022-11-14T09:10:07.182Z,62.13
2022-11-14T09:12:34.128Z,62.14
2022-11-14T09:15:00.590Z,62.01
2022-11-14T09:17:27.099Z,62.09
2022-11-14T09:19:54.074Z,61.96
2022-11-14T09:22:20.593Z,61.67
2022-11-14T09:24:47.794Z,61.96
2022-11-14T09:27:14.437Z,61.79
2022-11-14T09:29:40.915Z,61.75
2022-11-14T09:32:07.704Z,61.63
2022-11-14T09:34:34.172Z,61.68
2022-11-14T09:37:00.739Z,62.07
2022-11-14T09:39:27.244Z,62.04
2022-11-14T09:42:23.145Z,62.59
2022-11-14T09:44:56.789Z,62.32
2022-11-14T09:47:28.146Z,61.90
2022-11-14T09:50:02.974Z,61.75
2022-11-14T09:52:38.507Z,62.13
2022-11-14T09:55:30.013Z,62.13
2022-11-14T09:58:02.596Z,61.61
2022-11-14T10:00:51.758Z,62.09
2022-11-14T10:03:58.931Z,62.02
2022-11-14T10:06:35.701Z,61.44
2022-11-14T10:09:05.066Z,61.28
2022-11-14T10:11:49.824Z,61.52
2022-11-14T10:14:28.192Z,61.18
2022-11-14T10:17:12.120Z,61.47
2022-11-14T10:19:44.736Z,61.56
2022-11-14T10:22:48.503Z,61.66
2022-11-14T10:25:17.677Z,61.34
2022-11-14T10:28:24.632Z,61.48
2022-11-14T10:31:03.290Z,61.39
2022-11-14T10:33:53.837Z,61.35
2022-11-14T10:36:41.700Z,61.63
2022-11-14T10:39:21.939Z,61.44
2022-11-14T10:42:03.173Z,61.16
2022-11-14T10:44:38.649Z,61.03
2022-11-14T10:47:10.697Z,60.95
2022-11-14T10:49:37.613Z,61.03
2022-11-14T10:52:14.745Z,60.83
2022-11-14T10:55:00.267Z,60.71
2022-11-14T10:57:28.708Z,60.64
2022-11-14T10:59:55.578Z,61.28
2022-11-14T11:02:23.143Z,61.70
2022-11-14T11:04:49.585Z,62.83
2022-11-14T11:07:41.783Z,61.79
2022-11-14T11:10:38.622Z,61.44
2022-11-14T11:13:05.561Z,63.65
2022-11-14T11:15:40.670Z,60.41
2022-11-14T11:18:30.355Z,58.80
2022-11-14T11:21:10.593Z,57.56
2022-11-14T11:23:54.664Z,56.58
2022-11-14T11:26:32.411Z,54.89
2022-11-14T11:29:11.055Z,53.48
2022-11-14T11:31:49.715Z,52.33
2022-11-14T11:34:22.642Z,51.66
2022-11-14T11:36:55.687Z,50.84
2022-11-14T11:39:29.698Z,49.41
2022-11-14T11:42:10.167Z,48.66
2022-11-14T11:44:44.218Z,46.92
2022-11-14T11:47:16.227Z,46.60
2022-11-14T11:49:54.221Z,44.91
2022-11-14T11:52:30.246Z,44.02
2022-11-14T11:55:08.900Z,44.12
2022-11-14T11:57:48.679Z,42.98
2022-11-14T12:00:18.553Z,42.91
2022-11-14T12:02:50.112Z,42.22
2022-11-14T12:05:24.863Z,41.62
2022-11-14T12:08:01.356Z,40.74
2022-11-14T12:10:32.240Z,39.97
2022-11-14T12:13:20.156Z,38.46
2022-11-14T12:16:13.206Z,37.91
2022-11-14T12:19:05.243Z,38.52
2022-11-14T12:21:58.851Z,37.02
2022-11-14T12:24:53.524Z,36.68
2022-11-14T12:27:23.266Z,35.52
2022-11-14T12:30:02.605Z,34.64
2022-11-14T12:32:34.144Z,34.29
2022-11-14T12:35:06.651Z,34.26
2022-11-14T12:37:36.192Z,35.15
2022-11-14T12:40:08.679Z,35.15
2022-11-14T12:42:35.794Z,35.89
2022-11-14T12:45:02.421Z,36.39
2022-11-14T12:47:29.280Z,36.95
2022-11-14T12:49:58.554Z,37.34
2022-11-14T12:52:48.781Z,38.63
2022-11-14T12:55:24.260Z,38.77
2022-11-14T12:58:17.233Z,39.43
2022-11-14T13:00:46.433Z,39.92
2022-11-14T13:03:28.080Z,40.43
2022-11-14T13:05:59.703Z,40.86
2022-11-14T13:11:50.264Z,42.09
2022-11-14T13:14:39.321Z,41.91
2022-11-14T13:17:44.002Z,42.83
2022-11-14T13:20:46.039Z,43.35
2022-11-14T13:23:27.803Z,43.92
2022-11-14T13:26:09.786Z,44.31
2022-11-14T13:28:36.374Z,44.50
2022-11-14T13:31:06.930Z,44.45
2022-11-14T13:33:53.263Z,44.19
2022-11-14T13:36:45.030Z,44.47
2022-11-14T13:39:30.171Z,44.70
2022-11-14T13:42:26.321Z,45.43
2022-11-14T13:45:02.816Z,45.61
2022-11-14T13:47:46.573Z,45.13
2022-11-14T13:50:26.588Z,44.67
2022-11-14T13:52:53.522Z,44.53
2022-11-14T13:55:32.451Z,43.44
2022-11-14T13:58:15.051Z,43.10
2022-11-14T14:01:29.095Z,43.49
2022-11-14T14:04:33.208Z,42.56
2022-11-14T14:07:19.700Z,42.08
2022-11-14T14:10:20.325Z,42.03
2022-11-14T14:12:49.752Z,42.10
2022-11-14T14:15:35.445Z,41.05
2022-11-14T14:18:26.613Z,40.95
2022-11-14T14:21:12.150Z,40.66
2022-11-14T14:24:31.063Z,41.58
2022-11-14T14:27:19.527Z,41.68
2022-11-14T14:29:59.774Z,41.66
2022-11-14T14:32:26.539Z,42.13
2022-11-14T14:34:56.966Z,41.93
2022-11-14T14:37:26.320Z,41.04
2022-11-14T14:39:56.918Z,40.78
2022-11-14T14:42:24.243Z,40.73
2022-11-14T14:44:51.091Z,41.04
2022-11-14T14:47:33.207Z,41.52
2022-11-14T14:50:06.312Z,41.36
2022-11-14T14:52:37.525Z,41.69
2022-11-14T14:55:08.584Z,41.81
2022-11-14T14:57:35.042Z,42.25
2022-11-14T15:00:25.839Z,43.12
2022-11-14T15:02:56.502Z,43.18
2022-11-14T15:05:28.363Z,43.66
2022-11-14T15:08:00.604Z,43.80
2022-11-14T15:10:30.018Z,43.99
2022-11-14T15:12:58.566Z,44.13
2022-11-14T15:15:26.506Z,44.41
2022-11-14T15:17:55.022Z,44.69
2022-11-14T15:20:25.673Z,45.16
2022-11-14T15:23:10.277Z,45.74
2022-11-14T15:25:37.666Z,45.56
2022-11-14T15:28:05.381Z,45.79
2022-11-14T15:30:34.884Z,46.16
2022-11-14T15:33:04.557Z,46.27
2022-11-14T15:35:38.214Z,46.33
2022-11-14T15:38:43.224Z,47.13
2022-11-14T15:41:18.987Z,47.38
2022-11-14T15:43:45.655Z,47.07
2022-11-14T15:46:48.035Z,47.80
2022-11-14T15:49:14.501Z,47.37
2022-11-14T15:51:47.247Z,48.13
2022-11-14T15:54:27.176Z,48.35
2022-11-14T15:56:55.767Z,47.75
2022-11-14T15:59:23.264Z,47.90
2022-11-14T16:01:54.492Z,48.28
2022-11-14T16:04:24.726Z,48.25
2022-11-14T16:06:51.242Z,48.14
2022-11-14T16:11:43.851Z,48.49
2022-11-14T16:14:10.418Z,48.86
2022-11-14T16:16:36.979Z,48.94
2022-11-14T16:19:04.067Z,49.16
2022-11-14T16:21:30.652Z,49.00
2022-11-14T16:23:57.963Z,49.27
2022-11-14T16:26:27.489Z,49.54
2022-11-14T16:28:54.312Z,49.42
2022-11-14T16:31:21.070Z,49.55
2022-11-14T16:33:47.566Z,49.71
2022-11-14T16:36:14.198Z,49.84
2022-11-14T16:38:40.735Z,49.90
2022-11-14T16:41:08.697Z,50.05
2022-11-14T16:43:35.657Z,50.00
2022-11-14T16:46:06.086Z,50.68
2022-11-14T16:48:32.802Z,50.13
2022-11-14T16:51:14.863Z,50.81
2022-11-14T16:53:55.274Z,51.08
2022-11-14T16:56:21.841Z,50.72
2022-11-14T16:58:53.032Z,50.63
2022-11-14T17:01:21.356Z,50.97
2022-11-14T17:03:48.139Z,50.95
2022-11-14T17:06:14.636Z,51.07
2022-11-14T17:08:41.194Z,51.24
2022-11-14T17:11:10.024Z,51.62
2022-11-14T17:13:37.833Z,51.77
2022-11-14T17:16:05.151Z,51.80
2022-11-14T17:18:38.167Z,51.54
2022-11-14T17:21:06.632Z,51.85
2022-11-14T17:23:33.493Z,51.64
2022-11-14T17:26:09.439Z,52.39
2022-11-14T17:28:38.494Z,51.81
2022-11-14T17:31:08.594Z,52.15
2022-11-14T17:33:35.953Z,51.54
2022-11-14T17:36:07.593Z,51.91
2022-11-14T17:38:36.269Z,51.98
2022-11-14T17:41:06.274Z,51.69
2022-11-14T17:43:38.702Z,51.94
2022-11-14T17:46:09.844Z,51.69
2022-11-14T17:48:40.743Z,51.63
2022-11-14T17:51:10.392Z,51.84
2022-11-14T17:53:37.470Z,51.80
2022-11-14T17:56:04.220Z,51.76
2022-11-14T17:58:32.229Z,51.81
2022-11-14T18:00:59.427Z,51.81
2022-11-14T18:03:27.181Z,51.83
2022-11-14T18:05:56.075Z,51.92
2022-11-14T18:08:22.675Z,51.91
2022-11-14T18:10:49.163Z,52.01
2022-11-14T18:13:15.641Z,51.96
2022-11-14T18:15:42.136Z,52.12
2022-11-14T18:18:08.704Z,51.99
2022-11-14T18:20:38.033Z,52.37
2022-11-14T18:23:04.536Z,51.96
2022-11-14T18:25:31.630Z,52.17
2022-11-14T18:27:58.194Z,52.19
2022-11-14T18:30:40.976Z,52.04
2022-11-14T18:33:08.457Z,52.05
2022-11-14T18:35:35.023Z,51.94
2022-11-14T18:38:01.452Z,51.94
2022-11-14T18:40:28.065Z,52.16
2022-11-14T18:42:54.617Z,52.21
2022-11-14T18:45:21.088Z,52.21
2022-11-14T18:47:47.585Z,52.44
2022-11-14T18:50:14.216Z,52.37
2022-11-14T18:52:40.685Z,52.31
2022-11-14T18:55:08.043Z,52.52
2022-11-14T18:57:34.583Z,52.34
2022-11-14T19:00:01.113Z,52.47
2022-11-14T19:02:27.700Z,52.38
2022-11-14T19:04:54.357Z,52.61
2022-11-14T19:07:20.944Z,52.52
2022-11-14T19:09:47.526Z,52.43
2022-11-14T19:12:22.014Z,52.59
2022-11-14T19:14:52.968Z,52.71
2022-11-14T19:17:22.656Z,52.72
2022-11-14T19:19:50.287Z,53.08
2022-11-14T19:22:17.177Z,52.77
2022-11-14T19:24:45.016Z,52.69
2022-11-14T19:27:12.135Z,52.73
2022-11-14T19:29:38.670Z,52.68
2022-11-14T19:32:05.832Z,52.49
2022-11-14T19:34:32.438Z,52.74
2022-11-14T19:37:00.713Z,52.77
2022-11-14T19:39:27.910Z,52.79
2022-11-14T19:41:54.528Z,52.98
2022-11-14T19:44:21.032Z,52.92
2022-11-14T19:46:48.329Z,52.84
2022-11-14T19:49:15.112Z,52.92
2022-11-14T19:51:41.730Z,53.00
2022-11-14T19:54:09.979Z,52.92
2022-11-14T19:56:37.217Z,52.95
2022-11-14T19:59:09.606Z,52.98
2022-11-14T20:01:41.619Z,52.86
2022-11-14T20:04:11.880Z,53.29
2022-11-14T20:06:39.245Z,52.82
2022-11-14T20:09:08.390Z,53.01
2022-11-14T20:11:35.230Z,53.06
2022-11-14T20:14:02.787Z,53.10
2022-11-14T20:16:31.635Z,53.15
2022-11-14T20:19:00.748Z,53.13
2022-11-14T20:21:30.530Z,53.13
2022-11-14T20:23:57.542Z,52.98
2022-11-14T20:26:24.502Z,53.11
2022-11-14T20:28:53.856Z,53.16
2022-11-14T20:31:25.360Z,53.38
2022-11-14T20:33:53.547Z,53.02
2022-11-14T20:36:24.055Z,53.21
2022-11-14T20:38:51.223Z,53.04
2022-11-14T20:41:18.743Z,53.20
2022-11-14T20:43:45.352Z,53.09
2022-11-14T20:46:17.125Z,53.23
2022-11-14T20:48:44.894Z,53.09
2022-11-14T20:51:13.840Z,53.06
2022-11-14T20:53:40.922Z,53.15
2022-11-14T20:56:08.680Z,53.17
2022-11-14T20:58:35.297Z,53.07
2022-11-14T21:01:02.114Z,53.09
2022-11-14T21:03:28.952Z,53.18
2022-11-14T21:05:56.475Z,53.06
2022-11-14T21:08:23.131Z,53.10
2022-11-14T21:10:57.277Z,53.13
2022-11-14T21:13:42.816Z,52.89
2022-11-14T21:16:12.597Z,53.10
2022-11-14T21:18:43.888Z,52.94
2022-11-14T21:21:16.714Z,53.13
2022-11-14T21:23:47.526Z,53.18
2022-11-14T21:26:19.811Z,53.23
2022-11-14T21:28:48.382Z,53.18
2022-11-14T21:31:19.118Z,53.52
2022-11-14T21:33:46.855Z,53.22
2022-11-14T21:39:01.191Z,53.22
2022-11-14T21:41:29.600Z,53.52
2022-11-14T21:43:59.739Z,53.60
2022-11-14T21:46:27.466Z,53.61
2022-11-14T21:48:55.682Z,53.61
2022-11-14T21:51:25.603Z,53.77
2022-11-14T21:53:58.922Z,54.35
2022-11-14T21:56:28.211Z,53.89
2022-11-14T21:59:14.570Z,53.73
2022-11-14T22:02:07.689Z,54.08
2022-11-14T22:04:34.752Z,53.63
2022-11-14T22:07:03.360Z,53.84
2022-11-14T22:12:21.263Z,53.71
2022-11-14T22:14:47.758Z,53.61
2022-11-14T22:17:14.307Z,53.52
2022-11-14T22:19:40.878Z,53.63
2022-11-14T22:22:08.113Z,53.57
2022-11-14T22:24:34.694Z,53.63
2022-11-14T22:27:01.130Z,53.70
2022-11-14T22:29:27.551Z,53.87
2022-11-14T22:31:55.460Z,53.84
2022-11-14T22:34:22.244Z,54.05
2022-11-14T22:36:48.743Z,54.33
2022-11-14T22:39:15.199Z,54.46
2022-11-14T22:41:41.782Z,54.47
2022-11-14T22:44:08.272Z,54.75
2022-11-14T22:46:34.770Z,54.63
2022-11-14T22:49:03.852Z,54.76
2022-11-14T22:51:30.742Z,54.80
2022-11-14T22:53:58.068Z,54.63
2022-11-14T22:56:29.301Z,55.06
2022-11-14T22:58:58.755Z,54.79
2022-11-14T23:01:27.841Z,54.72
2022-11-14T23:04:00.122Z,55.17
2022-11-14T23:06:27.822Z,54.70
2022-11-14T23:08:55.106Z,54.40
2022-11-14T23:11:24.054Z,54.74
2022-11-14T23:13:52.889Z,54.68
2022-11-14T23:16:21.932Z,54.85
2022-11-14T23:18:48.887Z,54.97
2022-11-14T23:21:21.230Z,55.49
2022-11-14T23:23:56.612Z,55.95
2022-11-14T23:26:24.522Z,55.19
2022-11-14T23:28:51.452Z,55.20
2022-11-14T23:31:20.817Z,55.21
2022-11-14T23:33:48.983Z,55.29
2022-11-14T23:36:16.223Z,55.24
2022-11-14T23:38:42.866Z,55.28
2022-11-14T23:41:18.368Z,55.73
2022-11-14T23:43:45.633Z,55.27
2022-11-14T23:46:12.552Z,55.31
2022-11-14T23:48:39.269Z,55.14
2022-11-14T23:51:06.101Z,55.33
2022-11-14T23:53:32.925Z,55.28
2022-11-14T23:56:01.378Z,55.40
2022-11-14T23:58:29.482Z,55.17
